createdAt,value
2022-09-01T00:01:39.245Z,14.19
2022-09-01T00:04:08.901Z,14.13
2022-09-01T00:06:38.616Z,14.12
2022-09-01T00:09:08.766Z,14.11
2022-09-01T00:11:37.384Z,14.13
2022-09-01T00:14:29.513Z,14.14
2022-09-01T00:16:55.809Z,14.12
2022-09-01T00:19:24.629Z,14.09
2022-09-01T00:21:54.447Z,14.11
2022-09-01T00:24:22.877Z,14.12
2022-09-01T00:26:50.665Z,14.13
2022-09-01T00:29:18.599Z,14.11
2022-09-01T00:31:46.492Z,14.10
2022-09-01T00:34:14.310Z,14.09
2022-09-01T00:36:42.114Z,14.09
2022-09-01T00:39:11.577Z,14.10
2022-09-01T00:41:44.964Z,14.10
2022-09-01T00:44:15.194Z,14.09
2022-09-01T00:46:47.647Z,14.12
2022-09-01T00:49:23.656Z,14.07
2022-09-01T00:51:55.337Z,14.05
2022-09-01T00:54:28.435Z,14.03
2022-09-01T00:56:57.710Z,14.02
2022-09-01T00:59:27.757Z,14.02
2022-09-01T01:01:55.918Z,14.02
2022-09-01T01:04:24.497Z,13.96
2022-09-01T01:07:02.266Z,13.98
2022-09-01T01:09:36.387Z,13.97
2022-09-01T01:12:06.392Z,14.01
2022-09-01T01:14:36.967Z,14.00
2022-09-01T01:17:06.396Z,14.00
2022-09-01T01:19:58.549Z,14.01
2022-09-01T01:22:53.395Z,13.96
2022-09-01T01:25:23.998Z,13.91
2022-09-01T01:27:52.116Z,13.90
2022-09-01T01:30:23.690Z,13.91
2022-09-01T01:32:52.758Z,13.93
2022-09-01T01:35:21.849Z,13.94
2022-09-01T01:37:49.907Z,14.01
2022-09-01T01:40:22.116Z,14.02
2022-09-01T01:42:54.028Z,14.05
2022-09-01T01:45:24.554Z,14.09
2022-09-01T01:47:54.268Z,14.05
2022-09-01T01:50:23.617Z,14.06
2022-09-01T01:52:58.422Z,14.07
2022-09-01T01:55:27.949Z,14.08
2022-09-01T01:57:57.672Z,14.08
2022-09-01T02:00:30.547Z,14.09
2022-09-01T02:03:00.117Z,14.06
2022-09-01T02:05:31.800Z,14.04
2022-09-01T02:08:04.018Z,14.01
2022-09-01T02:10:34.809Z,14.00
2022-09-01T02:13:08.104Z,13.96
2022-09-01T02:15:44.186Z,13.93
2022-09-01T02:18:14.315Z,13.96
2022-09-01T02:20:42.619Z,13.90
2022-09-01T02:23:12.361Z,13.86
2022-09-01T02:26:05.120Z,13.84
2022-09-01T02:28:36.830Z,13.84
2022-09-01T02:31:08.991Z,13.75
2022-09-01T02:33:38.394Z,13.73
2022-09-01T02:36:08.901Z,13.68
2022-09-01T02:38:36.699Z,13.67
2022-09-01T02:41:09.032Z,13.65
2022-09-01T02:43:39.965Z,13.61
2022-09-01T02:46:08.465Z,13.58
2022-09-01T02:48:39.193Z,13.52
2022-09-01T02:51:10.397Z,13.42
2022-09-01T02:53:42.744Z,13.37
2022-09-01T02:56:14.757Z,13.36
2022-09-01T02:58:46.824Z,13.23
2022-09-01T03:01:21.518Z,13.16
2022-09-01T03:03:50.067Z,13.09
2022-09-01T03:06:19.338Z,13.04
2022-09-01T03:08:47.747Z,12.98
2022-09-01T03:11:15.714Z,12.93
2022-09-01T03:13:44.893Z,12.87
2022-09-01T03:16:13.642Z,12.93
2022-09-01T03:18:42.839Z,12.95
2022-09-01T03:21:15.050Z,12.96
2022-09-01T03:23:43.502Z,12.92
2022-09-01T03:26:11.447Z,12.82
2022-09-01T03:28:39.792Z,12.76
2022-09-01T03:31:09.707Z,12.71
2022-09-01T03:33:37.908Z,12.68
2022-09-01T03:36:14.858Z,12.66
2022-09-01T03:38:44.089Z,12.63
2022-09-01T03:41:13.384Z,12.59
2022-09-01T03:43:46.841Z,12.54
2022-09-01T03:46:20.331Z,12.55
2022-09-01T03:48:50.694Z,12.57
2022-09-01T03:51:18.968Z,12.61
2022-09-01T03:53:47.366Z,12.57
2022-09-01T03:56:15.291Z,12.55
2022-09-01T03:58:47.101Z,12.55
2022-09-01T04:01:17.074Z,12.54
2022-09-01T04:03:49.120Z,12.54
2022-09-01T04:06:19.348Z,12.54
2022-09-01T04:08:47.459Z,12.53
2022-09-01T04:11:18.785Z,12.52
2022-09-01T04:13:48.206Z,12.53
2022-09-01T04:16:41.106Z,12.52
2022-09-01T04:19:15.984Z,12.52
2022-09-01T04:21:47.909Z,12.47
2022-09-01T04:24:15.888Z,12.45
2022-09-01T04:26:48.128Z,12.40
2022-09-01T04:29:18.628Z,12.39
2022-09-01T04:31:53.640Z,12.32
2022-09-01T04:34:22.550Z,12.26
2022-09-01T04:36:56.794Z,12.23
2022-09-01T04:39:25.266Z,12.21
2022-09-01T04:41:53.079Z,12.19
2022-09-01T04:44:22.184Z,12.13
2022-09-01T04:46:51.393Z,12.12
2022-09-01T04:49:22.306Z,12.12
2022-09-01T04:51:54.432Z,12.13
2022-09-01T04:54:23.918Z,12.11
2022-09-01T04:56:54.962Z,12.10
2022-09-01T04:59:27.131Z,12.10
2022-09-01T05:01:57.537Z,12.08
2022-09-01T05:04:28.442Z,12.04
2022-09-01T05:06:59.818Z,12.04
2022-09-01T05:09:29.915Z,12.04
2022-09-01T05:11:58.376Z,12.04
2022-09-01T05:14:27.054Z,12.06
2022-09-01T05:16:59.868Z,12.11
2022-09-01T05:19:30.892Z,12.14
2022-09-01T05:22:00.015Z,12.17
2022-09-01T05:24:30.424Z,12.20
2022-09-01T05:27:00.500Z,12.23
2022-09-01T05:29:29.689Z,12.24
2022-09-01T05:32:00.417Z,12.31
2022-09-01T05:34:29.652Z,12.37
2022-09-01T05:37:00.689Z,12.45
2022-09-01T05:39:29.339Z,12.55
2022-09-01T05:41:57.266Z,12.63
2022-09-01T05:44:25.171Z,12.65
2022-09-01T05:46:53.508Z,12.69
2022-09-01T05:49:22.859Z,12.72
2022-09-01T05:51:54.096Z,12.76
2022-09-01T05:54:25.398Z,12.91
2022-09-01T05:56:53.656Z,13.04
2022-09-01T05:59:24.741Z,13.21
2022-09-01T06:01:54.435Z,13.28
2022-09-01T06:04:25.337Z,13.42
2022-09-01T06:07:06.990Z,13.50
2022-09-01T06:09:39.745Z,13.61
2022-09-01T06:12:08.499Z,13.70
2022-09-01T06:14:36.364Z,13.74
2022-09-01T06:17:04.245Z,13.86
2022-09-01T06:19:37.259Z,13.83
2022-09-01T06:22:06.026Z,13.88
2022-09-01T06:24:33.885Z,13.90
2022-09-01T06:27:02.059Z,13.86
2022-09-01T06:29:31.426Z,13.98
2022-09-01T06:32:02.423Z,14.01
2022-09-01T06:34:33.211Z,13.91
2022-09-01T06:37:02.407Z,13.97
2022-09-01T06:39:31.725Z,13.99
2022-09-01T06:42:01.094Z,14.14
2022-09-01T06:44:31.827Z,14.08
2022-09-01T06:47:01.008Z,14.18
2022-09-01T06:49:34.787Z,14.15
2022-09-01T06:52:05.703Z,14.11
2022-09-01T06:54:35.054Z,14.14
2022-09-01T06:58:03.265Z,14.09
2022-09-01T06:59:53.959Z,14.18
2022-09-01T07:02:22.399Z,14.35
2022-09-01T07:04:55.437Z,14.36
2022-09-01T07:10:21.417Z,14.37
2022-09-01T07:13:06.271Z,14.33
2022-09-01T07:18:26.822Z,14.39
2022-09-01T07:21:07.725Z,14.47
2022-09-01T07:23:47.418Z,14.49
2022-09-01T07:26:35.335Z,14.62
2022-09-01T07:29:06.092Z,14.68
2022-09-01T07:34:46.377Z,14.88
2022-09-01T07:38:46.839Z,14.88
2022-09-01T07:43:12.789Z,15.02
2022-09-01T07:45:58.282Z,15.01
2022-09-01T07:51:36.876Z,15.14
2022-09-01T07:54:05.640Z,15.22
2022-09-01T07:56:39.940Z,15.21
2022-09-01T07:59:09.482Z,15.16
2022-09-01T08:01:43.287Z,15.08
2022-09-01T08:04:11.174Z,15.20
2022-09-01T08:06:39.678Z,15.06
2022-09-01T08:09:11.917Z,15.17
2022-09-01T08:12:02.994Z,15.17
2022-09-01T08:14:33.723Z,15.35
2022-09-01T08:17:16.961Z,15.45
2022-09-01T08:19:47.029Z,15.59
2022-09-01T08:22:15.801Z,15.76
2022-09-01T08:24:43.952Z,15.90
2022-09-01T08:27:13.212Z,16.08
2022-09-01T08:29:42.168Z,16.16
2022-09-01T08:32:11.298Z,16.41
2022-09-01T08:34:39.455Z,16.51
2022-09-01T08:37:07.736Z,16.66
2022-09-01T08:39:35.551Z,16.64
2022-09-01T08:42:13.346Z,16.84
2022-09-01T08:44:52.124Z,17.03
2022-09-01T08:47:35.590Z,17.21
2022-09-01T08:50:09.100Z,17.27
2022-09-01T08:52:40.182Z,17.43
2022-09-01T08:55:15.462Z,17.15
2022-09-01T08:57:45.867Z,17.41
2022-09-01T09:00:20.047Z,17.45
2022-09-01T09:03:00.201Z,17.58
2022-09-01T09:05:40.090Z,17.73
2022-09-01T09:08:26.510Z,17.93
2022-09-01T09:11:03.052Z,18.07
2022-09-01T09:13:42.582Z,18.22
2022-09-01T09:16:16.934Z,18.42
2022-09-01T09:18:55.672Z,18.40
2022-09-01T09:21:30.492Z,18.22
2022-09-01T09:24:04.901Z,18.36
2022-09-01T09:26:48.590Z,18.39
2022-09-01T09:29:16.736Z,18.37
2022-09-01T09:31:50.042Z,18.41
2022-09-01T09:34:30.029Z,18.44
2022-09-01T09:36:57.801Z,18.41
2022-09-01T09:39:25.602Z,18.52
2022-09-01T09:42:09.065Z,18.52
2022-09-01T09:44:44.618Z,18.63
2022-09-01T09:47:43.522Z,18.66
2022-09-01T09:50:25.237Z,18.74
2022-09-01T09:52:56.546Z,18.84
2022-09-01T09:55:27.344Z,18.71
2022-09-01T09:57:59.829Z,18.36
2022-09-01T10:00:30.074Z,18.20
2022-09-01T10:03:01.367Z,18.21
2022-09-01T10:05:40.549Z,18.05
2022-09-01T10:08:10.692Z,17.96
2022-09-01T10:10:42.694Z,18.00
2022-09-01T10:13:14.742Z,18.08
2022-09-01T10:15:51.223Z,18.09
2022-09-01T10:18:28.775Z,18.48
2022-09-01T10:21:04.463Z,19.19
2022-09-01T10:23:34.946Z,19.48
2022-09-01T10:26:09.531Z,19.73
2022-09-01T10:28:49.579Z,19.56
2022-09-01T10:31:19.095Z,19.46
2022-09-01T10:33:47.455Z,19.84
2022-09-01T10:36:17.751Z,19.94
2022-09-01T10:38:50.490Z,20.28
2022-09-01T10:41:59.936Z,19.59
2022-09-01T10:44:33.976Z,19.47
2022-09-01T10:47:06.275Z,19.53
2022-09-01T10:50:07.673Z,20.38
2022-09-01T10:53:04.971Z,20.62
2022-09-01T10:55:39.932Z,20.84
2022-09-01T11:02:23.040Z,20.09
2022-09-01T11:05:12.990Z,19.49
2022-09-01T11:10:49.256Z,19.70
2022-09-01T11:13:32.941Z,19.90
2022-09-01T11:16:49.253Z,20.24
2022-09-01T11:19:38.667Z,20.36
2022-09-01T11:22:29.514Z,21.06
2022-09-01T11:25:42.289Z,21.38
2022-09-01T11:28:45.658Z,21.41
2022-09-01T11:31:40.925Z,20.92
2022-09-01T11:34:15.296Z,21.15
2022-09-01T11:36:55.685Z,21.36
2022-09-01T11:39:32.136Z,20.75
2022-09-01T11:42:05.576Z,21.14
2022-09-01T11:44:42.543Z,21.27
2022-09-01T11:47:17.112Z,20.71
2022-09-01T11:49:52.196Z,20.75
2022-09-01T11:52:22.358Z,21.01
2022-09-01T11:54:50.655Z,21.64
2022-09-01T11:57:25.121Z,21.94
2022-09-01T11:59:54.023Z,22.26
2022-09-01T12:02:27.238Z,22.46
2022-09-01T12:04:56.760Z,22.47
2022-09-01T12:07:33.427Z,22.13
2022-09-01T12:10:01.545Z,22.29
2022-09-01T12:12:36.109Z,22.35
2022-09-01T12:15:09.556Z,22.39
2022-09-01T12:17:38.974Z,22.60
2022-09-01T12:20:29.458Z,22.45
2022-09-01T12:22:59.115Z,22.48
2022-09-01T12:25:29.200Z,22.54
2022-09-01T12:27:57.647Z,22.22
2022-09-01T12:30:27.019Z,21.97
2022-09-01T12:35:46.393Z,22.01
2022-09-01T12:38:25.194Z,21.88
2022-09-01T12:40:55.090Z,22.32
2022-09-01T12:43:35.858Z,22.48
2022-09-01T12:46:04.798Z,22.28
2022-09-01T12:48:36.165Z,22.26
2022-09-01T12:51:09.383Z,22.26
2022-09-01T12:53:37.770Z,22.30
2022-09-01T12:56:20.952Z,22.60
2022-09-01T12:58:54.758Z,22.49
2022-09-01T13:01:28.893Z,22.52
2022-09-01T13:04:12.965Z,22.46
2022-09-01T13:06:41.857Z,22.08
2022-09-01T13:09:13.204Z,22.39
2022-09-01T13:14:31.397Z,22.61
2022-09-01T13:16:59.201Z,22.76
2022-09-01T13:19:31.411Z,22.62
2022-09-01T13:21:59.343Z,22.38
2022-09-01T13:24:30.510Z,22.37
2022-09-01T13:29:47.412Z,21.78
2022-09-01T13:32:19.153Z,21.50
2022-09-01T13:34:50.670Z,21.32
2022-09-01T13:37:20.137Z,21.01
2022-09-01T13:39:48.579Z,21.20
2022-09-01T13:42:17.387Z,21.40
2022-09-01T13:44:49.625Z,21.65
2022-09-01T13:48:15.108Z,21.47
2022-09-01T13:50:14.666Z,21.23
2022-09-01T13:52:46.154Z,20.89
2022-09-01T13:55:25.509Z,20.75
2022-09-01T13:57:55.824Z,20.52
2022-09-01T14:00:25.582Z,20.37
2022-09-01T14:02:56.530Z,20.48
2022-09-01T14:05:27.694Z,20.70
2022-09-01T14:07:56.120Z,20.90
2022-09-01T14:10:25.402Z,21.10
2022-09-01T14:12:53.650Z,21.05
2022-09-01T14:15:26.983Z,21.10
2022-09-01T14:17:57.231Z,20.96
2022-09-01T14:20:30.947Z,20.67
2022-09-01T14:23:01.221Z,20.54
2022-09-01T14:25:29.431Z,20.33
2022-09-01T14:27:57.868Z,20.20
2022-09-01T14:30:31.403Z,20.17
2022-09-01T14:33:00.399Z,20.08
2022-09-01T14:35:34.284Z,20.20
2022-09-01T14:38:05.264Z,20.29
2022-09-01T14:40:33.793Z,20.33
2022-09-01T14:43:01.731Z,20.41
2022-09-01T14:45:29.767Z,20.45
2022-09-01T14:48:00.725Z,20.30
2022-09-01T14:50:32.350Z,20.28
2022-09-01T14:53:02.195Z,20.31
2022-09-01T14:55:31.982Z,20.37
2022-09-01T14:58:00.881Z,20.31
2022-09-01T15:00:30.186Z,20.24
2022-09-01T15:02:59.021Z,20.08
2022-09-01T15:05:26.867Z,19.94
2022-09-01T15:07:56.708Z,19.78
2022-09-01T15:10:29.592Z,19.70
2022-09-01T15:12:59.357Z,19.54
2022-09-01T15:15:29.607Z,19.53
2022-09-01T15:17:57.997Z,19.56
2022-09-01T15:20:43.607Z,19.53
2022-09-01T15:23:13.677Z,19.60
2022-09-01T15:25:41.432Z,19.60
2022-09-01T15:28:09.707Z,19.63
2022-09-01T15:30:40.246Z,19.62
2022-09-01T15:33:14.805Z,19.72
2022-09-01T15:35:43.747Z,19.82
2022-09-01T15:38:17.077Z,19.88
2022-09-01T15:40:51.977Z,19.87
2022-09-01T15:43:25.197Z,19.86
2022-09-01T15:45:56.570Z,19.93
2022-09-01T15:48:24.403Z,20.05
2022-09-01T15:50:52.308Z,20.04
2022-09-01T15:53:21.554Z,20.26
2022-09-01T15:55:49.902Z,20.32
2022-09-01T15:58:19.320Z,20.27
2022-09-01T16:00:47.522Z,20.17
2022-09-01T16:03:15.992Z,20.05
2022-09-01T16:05:43.839Z,19.84
2022-09-01T16:08:12.212Z,19.64
2022-09-01T16:10:42.814Z,19.47
2022-09-01T16:13:13.009Z,19.37
2022-09-01T16:15:47.903Z,19.39
2022-09-01T16:18:29.748Z,19.32
2022-09-01T16:21:05.329Z,19.28
2022-09-01T16:23:35.120Z,19.20
2022-09-01T16:26:04.254Z,19.26
2022-09-01T16:28:37.879Z,19.24
2022-09-01T16:31:11.906Z,19.22
2022-09-01T16:33:40.322Z,19.27
2022-09-01T16:36:34.795Z,19.27
2022-09-01T16:39:13.140Z,19.30
2022-09-01T16:41:54.104Z,19.46
2022-09-01T16:44:36.419Z,19.67
2022-09-01T16:47:17.141Z,19.83
2022-09-01T16:49:54.336Z,20.04
2022-09-01T16:52:26.492Z,19.99
2022-09-01T16:55:12.700Z,19.89
2022-09-01T16:57:59.027Z,19.99
2022-09-01T17:00:37.115Z,20.04
2022-09-01T17:03:17.090Z,20.27
2022-09-01T17:05:54.751Z,19.98
2022-09-01T17:08:25.915Z,19.46
2022-09-01T17:10:59.125Z,19.16
2022-09-01T17:13:38.739Z,18.77
2022-09-01T17:16:12.736Z,18.56
2022-09-01T17:18:44.359Z,18.29
2022-09-01T17:21:17.510Z,18.11
2022-09-01T17:23:54.250Z,17.91
2022-09-01T17:26:27.082Z,17.82
2022-09-01T17:29:02.623Z,17.65
2022-09-01T17:31:41.794Z,17.45
2022-09-01T17:34:27.220Z,17.31
2022-09-01T17:37:06.220Z,17.18
2022-09-01T17:39:43.621Z,17.02
2022-09-01T17:42:25.016Z,16.86
2022-09-01T17:44:57.127Z,16.68
2022-09-01T17:47:37.122Z,16.56
2022-09-01T17:50:13.994Z,16.42
2022-09-01T17:52:52.619Z,16.26
2022-09-01T17:55:35.569Z,16.10
2022-09-01T17:58:08.069Z,15.95
2022-09-01T18:00:44.588Z,15.80
2022-09-01T18:03:29.804Z,15.64
2022-09-01T18:06:04.502Z,15.47
2022-09-01T18:08:40.259Z,15.27
2022-09-01T18:11:13.164Z,15.07
2022-09-01T18:13:53.298Z,14.91
2022-09-01T18:16:26.504Z,14.80
2022-09-01T18:18:55.018Z,14.71
2022-09-01T18:21:30.313Z,14.61
2022-09-01T18:24:14.043Z,14.50
2022-09-01T18:26:44.662Z,14.42
2022-09-01T18:29:12.532Z,14.34
2022-09-01T18:32:04.092Z,14.23
2022-09-01T18:34:49.064Z,14.09
2022-09-01T18:37:23.374Z,13.97
2022-09-01T18:39:58.477Z,13.86
2022-09-01T18:42:33.374Z,13.77
2022-09-01T18:45:10.123Z,13.69
2022-09-01T18:47:50.695Z,13.61
2022-09-01T18:50:27.858Z,13.52
2022-09-01T18:53:08.278Z,13.46
2022-09-01T18:55:43.781Z,13.35
2022-09-01T18:58:16.482Z,13.27
2022-09-01T19:00:49.601Z,13.17
2022-09-01T19:03:30.005Z,13.06
2022-09-01T19:06:19.745Z,12.97
2022-09-01T19:08:55.716Z,12.88
2022-09-01T19:11:35.086Z,12.85
2022-09-01T19:14:11.146Z,12.78
2022-09-01T19:16:55.026Z,12.76
2022-09-01T19:19:37.527Z,12.78
2022-09-01T19:22:05.865Z,12.76
2022-09-01T19:24:39.225Z,12.72
2022-09-01T19:27:11.519Z,12.62
2022-09-01T19:29:48.609Z,12.55
2022-09-01T19:32:21.827Z,12.48
2022-09-01T19:34:56.603Z,12.45
2022-09-01T19:37:24.656Z,12.39
2022-09-01T19:39:54.754Z,12.35
2022-09-01T19:42:28.012Z,12.31
2022-09-01T19:45:07.292Z,12.25
2022-09-01T19:47:40.363Z,12.24
2022-09-01T19:50:17.791Z,12.18
2022-09-01T19:52:55.127Z,12.12
2022-09-01T19:55:31.538Z,12.05
2022-09-01T19:58:04.237Z,12.00
2022-09-01T20:00:41.930Z,11.97
2022-09-01T20:03:13.021Z,11.91
2022-09-01T20:05:46.553Z,11.83
2022-09-01T20:08:23.268Z,11.81
2022-09-01T20:10:59.279Z,11.77
2022-09-01T20:14:01.096Z,11.73
2022-09-01T20:16:32.861Z,11.70
2022-09-01T20:19:06.319Z,11.66
2022-09-01T20:21:41.050Z,11.67
2022-09-01T20:24:15.419Z,11.65
2022-09-01T20:26:50.323Z,11.60
2022-09-01T20:29:25.493Z,11.61
2022-09-01T20:31:56.599Z,11.64
2022-09-01T20:34:33.867Z,11.67
2022-09-01T20:37:07.513Z,11.65
2022-09-01T20:39:59.057Z,11.62
2022-09-01T20:42:37.275Z,11.61
2022-09-01T20:45:12.669Z,11.56
2022-09-01T20:47:40.767Z,11.59
2022-09-01T20:50:12.718Z,11.59
2022-09-01T20:52:53.718Z,11.65
2022-09-01T20:55:29.381Z,11.63
2022-09-01T20:58:03.319Z,11.65
2022-09-01T21:00:34.536Z,11.66
2022-09-01T21:03:11.974Z,11.64
2022-09-01T21:05:49.627Z,11.58
2022-09-01T21:08:33.849Z,11.48
2022-09-01T21:11:16.720Z,11.43
2022-09-01T21:13:56.114Z,11.35
2022-09-01T21:16:33.539Z,11.33
2022-09-01T21:19:08.215Z,11.31
2022-09-01T21:21:44.819Z,11.23
2022-09-01T21:24:14.214Z,11.22
2022-09-01T21:26:44.756Z,11.22
2022-09-01T21:29:28.818Z,11.18
2022-09-01T21:31:57.112Z,11.13
2022-09-01T21:34:24.906Z,11.05
2022-09-01T21:36:55.390Z,10.99
2022-09-01T21:39:24.782Z,10.94
2022-09-01T21:41:52.699Z,10.86
2022-09-01T21:44:22.129Z,10.76
2022-09-01T21:46:50.360Z,10.72
2022-09-01T21:49:18.246Z,10.72
2022-09-01T21:51:46.297Z,10.63
2022-09-01T21:54:14.099Z,10.59
2022-09-01T21:56:43.267Z,10.57
2022-09-01T21:59:13.129Z,10.48
2022-09-01T22:01:40.973Z,10.40
2022-09-01T22:04:09.232Z,10.34
2022-09-01T22:06:38.764Z,10.30
2022-09-01T22:09:20.802Z,10.24
2022-09-01T22:11:52.272Z,10.13
2022-09-01T22:14:21.146Z,10.09
2022-09-01T22:16:50.020Z,10.06
2022-09-01T22:19:18.313Z,10.05
2022-09-01T22:21:48.318Z,10.06
2022-09-01T22:24:19.373Z,10.01
2022-09-01T22:26:48.523Z,9.99
2022-09-01T22:29:18.585Z,9.97
2022-09-01T22:31:46.430Z,9.90
2022-09-01T22:34:14.317Z,9.86
2022-09-01T22:36:44.769Z,9.79
2022-09-01T22:39:13.965Z,9.78
2022-09-01T22:41:42.767Z,9.74
2022-09-01T22:44:11.429Z,9.70
2022-09-01T22:46:41.014Z,9.68
2022-09-01T22:49:10.370Z,9.66
2022-09-01T22:51:39.390Z,9.66
2022-09-01T22:54:07.852Z,9.62
2022-09-01T22:56:39.042Z,9.61
2022-09-01T22:59:09.647Z,9.57
2022-09-01T23:06:31.887Z,9.32
2022-09-01T23:09:02.074Z,9.27
2022-09-01T23:11:30.170Z,9.23
2022-09-01T23:13:58.490Z,9.21
2022-09-01T23:16:27.809Z,9.15
2022-09-01T23:18:56.454Z,9.19
2022-09-01T23:21:28.633Z,9.19
2022-09-01T23:23:59.055Z,9.16
2022-09-01T23:26:27.676Z,9.11
2022-09-01T23:28:56.062Z,9.06
2022-09-01T23:31:26.066Z,9.02
2022-09-01T23:33:54.697Z,8.96
2022-09-01T23:36:25.544Z,8.96
2022-09-01T23:38:54.453Z,8.97
2022-09-01T23:41:29.288Z,8.96
2022-09-01T23:43:58.329Z,8.91
2022-09-01T23:46:28.151Z,8.85
2022-09-01T23:48:56.577Z,8.81
2022-09-01T23:51:25.509Z,8.80
2022-09-01T23:53:53.826Z,8.80
2022-09-01T23:56:25.626Z,8.73
2022-09-01T23:58:53.715Z,8.71
